Nashville International, TN

1:50 PM CDT on August 25, 2016 (GMT -0500)
2 Kids on 2 Wheels | | Change Station

Elev 545 ft 36.17 °N, 86.59 °W | Updated 9 days ago

Cloudy
Cloudy
91 °F
Feels Like 100 °F
N
6
Wind Variable Wind from WSW
Gusts mph

Today
High -- | Low -- °F
--% Chance of Precip.
Yesterday
High -- | Low -- °F
Precip. -- in
Pressure 30.11 in
Visibility 10.0 miles
Clouds Mostly Cloudy 4300 ft
Mostly Cloudy 5500 ft
Mostly Cloudy 7500 ft
Heat Index 100 °F
Dew Point 73 °F
Humidity 56%
Rainfall in
Snow Depth Not available.
6:13 AM 7:23 PM
Last Quarter, 43% visible
METAR KBNA 251753Z 28004KT 10SM BKN043TCU BKN055 BKN075 34/22 A3013 RMK AO2 SLP195 TCU ALQDS T03390222 10339 20233 58011
Pressure 30.11 in
Visibility 10.0 miles
Clouds Mostly Cloudy 4300 ft
Mostly Cloudy 5500 ft
Mostly Cloudy 7500 ft
Heat Index 100 °F
Dew Point 73 °F
Humidity 56%
Rainfall in
Snow Depth Not available.
6:13 AM 7:23 PM
Last Quarter, 43% visible
METAR KBNA 251753Z 28004KT 10SM BKN043TCU BKN055 BKN075 34/22 A3013 RMK AO2 SLP195 TCU ALQDS T03390222 10339 20233 58011
A tropical disturbance pushing toward the Bahamas, is expected to develop into a tropical depression or storm, and will likely target Florida and the Gulf Coast this weekend into next week.

Right now, the disturbance remains a broad area of low pressure pushing through the Dominican Republic and Haiti, headed toward the southeast Bahamas. Rainfall totals over 3 inches (with locally higher amounts) are expected in HispaƱiola, particularly over elevated terrain.

10-Day Weather Forecast

Almanac

Astronomy

Aug. 25, 2016 Rise Set
Actual Time
Civil Twilight
Nautical Twilight
Astronomical Twilight
Moon
Length of Visible Light
Length of Day
Tomorrow will be .
, % of the Moon is Illuminated

Today's Extremes

State Highs State Lows

Community

WunderPhotos

Upload Photos

1,934,890 photos uploaded!

WunderBlog® & News

Nearby

Air Quality

  Air Quality AQ Index Pollutant
Not available.

Snow Depth

Station Depth Elevation

Earthquake Activity

City Distance Mag. Time & Date
Minimum magnitude displayed is 2.5.

Coastal Water Temperatures

Place Temperature

Stations

Nearby Weather Stations

Station Location Temp. Windchill Dew Point Humidity Wind Precip. Elev Updated Type
                   

Watches & Warnings

There are currently no watches in effect.